createdAt,value
2017-08-08T00:01:47.493Z,64.50
2017-08-08T00:04:14.160Z,64.50
2017-08-08T00:06:40.860Z,64.50
2017-08-08T00:09:07.560Z,64.50
2017-08-08T00:11:34.625Z,64.50
2017-08-08T00:14:01.901Z,64.50
2017-08-08T00:16:28.588Z,64.40
2017-08-08T00:18:55.297Z,64.40
2017-08-08T00:21:21.985Z,64.50
2017-08-08T00:23:48.701Z,64.50
2017-08-08T00:26:15.383Z,64.50
2017-08-08T00:28:42.450Z,64.50
2017-08-08T00:31:09.169Z,64.50
2017-08-08T00:33:35.845Z,64.50
2017-08-08T00:36:02.544Z,64.50
2017-08-08T00:38:29.221Z,64.50
2017-08-08T00:40:55.925Z,64.50
2017-08-08T00:43:22.605Z,64.50
2017-08-08T00:45:49.351Z,64.50
2017-08-08T00:48:16.016Z,64.50
2017-08-08T00:50:42.693Z,64.50
2017-08-08T00:53:09.390Z,64.60
2017-08-08T00:55:36.625Z,64.50
2017-08-08T00:58:03.341Z,64.50
2017-08-08T01:00:30.013Z,64.50
2017-08-08T01:02:56.717Z,64.50
2017-08-08T01:05:23.813Z,64.50
2017-08-08T01:07:50.517Z,64.50
2017-08-08T01:10:17.186Z,64.60
2017-08-08T01:12:43.862Z,64.50
2017-08-08T01:15:10.581Z,64.50
2017-08-08T01:17:37.244Z,64.60
2017-08-08T01:20:03.961Z,64.50
2017-08-08T01:22:30.624Z,64.50
2017-08-08T01:24:57.329Z,64.50
2017-08-08T01:27:24.009Z,64.50
2017-08-08T01:29:50.726Z,64.50
2017-08-08T01:32:17.413Z,64.60
2017-08-08T01:34:44.087Z,64.50
2017-08-08T01:37:10.801Z,64.50
2017-08-08T01:39:37.487Z,64.50
2017-08-08T01:42:04.198Z,64.60
2017-08-08T01:44:30.869Z,64.50
2017-08-08T01:46:57.576Z,64.50
2017-08-08T01:49:24.249Z,64.50
2017-08-08T01:51:50.963Z,64.60
2017-08-08T01:54:17.649Z,64.50
2017-08-08T01:56:44.335Z,64.50
2017-08-08T01:59:11.032Z,64.50
2017-08-08T02:01:37.708Z,64.50
2017-08-08T02:04:04.805Z,64.50
2017-08-08T02:06:31.480Z,64.50
2017-08-08T02:08:58.190Z,64.50
2017-08-08T02:11:24.860Z,64.50
2017-08-08T02:13:51.577Z,64.50
2017-08-08T02:16:18.709Z,64.50
2017-08-08T02:18:45.372Z,64.50
2017-08-08T02:21:12.090Z,64.40
2017-08-08T02:23:39.313Z,64.40
2017-08-08T02:26:06.025Z,64.40
2017-08-08T02:28:32.706Z,64.50
2017-08-08T02:30:59.409Z,64.50
2017-08-08T02:33:26.085Z,64.50
2017-08-08T02:35:52.797Z,64.40
2017-08-08T02:38:19.473Z,64.50
2017-08-08T02:40:46.141Z,64.50
2017-08-08T02:43:12.841Z,64.40
2017-08-08T02:45:39.506Z,64.40
2017-08-08T02:48:06.216Z,64.40
2017-08-08T02:50:32.888Z,64.50
2017-08-08T02:52:59.594Z,64.40
2017-08-08T02:55:26.256Z,64.40
2017-08-08T02:57:52.986Z,64.50
2017-08-08T03:02:58.675Z,64.30
2017-08-08T03:05:25.345Z,64.40
2017-08-08T03:07:52.035Z,64.40
2017-08-08T03:10:18.741Z,64.40
2017-08-08T03:12:45.432Z,64.30
2017-08-08T03:15:12.129Z,64.40
2017-08-08T03:17:38.825Z,64.30
2017-08-08T03:20:05.545Z,64.30
2017-08-08T03:22:32.209Z,64.30
2017-08-08T03:24:58.917Z,64.30
2017-08-08T03:27:25.605Z,64.30
2017-08-08T03:29:52.273Z,64.30
2017-08-08T03:32:18.982Z,64.30
2017-08-08T03:34:45.648Z,64.30
2017-08-08T03:37:12.346Z,64.30
2017-08-08T03:39:39.017Z,64.30
2017-08-08T03:42:05.717Z,64.30
2017-08-08T03:44:33.453Z,64.20
2017-08-08T03:47:00.161Z,64.20
2017-08-08T03:49:27.792Z,64.30
2017-08-08T03:51:54.469Z,64.20
2017-08-08T03:54:21.197Z,64.30
2017-08-08T03:56:47.869Z,64.30
2017-08-08T03:59:14.582Z,64.30
2017-08-08T04:01:41.261Z,64.30
2017-08-08T04:04:08.978Z,64.30
2017-08-08T04:06:35.645Z,64.30
2017-08-08T04:09:02.337Z,64.20
2017-08-08T04:11:29.010Z,64.20
2017-08-08T04:13:55.708Z,64.20
2017-08-08T04:16:23.353Z,64.30
2017-08-08T04:18:50.052Z,64.30
2017-08-08T04:21:17.341Z,64.20
2017-08-08T04:23:44.046Z,64.30
2017-08-08T04:26:11.341Z,64.30
2017-08-08T04:28:38.010Z,64.20
2017-08-08T04:31:08.165Z,64.20
2017-08-08T04:33:34.833Z,64.30
2017-08-08T04:36:01.529Z,64.20
2017-08-08T04:38:28.188Z,64.30
2017-08-08T04:40:54.896Z,64.20
2017-08-08T04:43:21.962Z,64.20
2017-08-08T04:45:48.629Z,64.20
2017-08-08T04:48:15.337Z,64.20
2017-08-08T04:50:42.010Z,64.20
2017-08-08T04:53:08.722Z,64.20
2017-08-08T04:55:35.393Z,64.20
2017-08-08T04:58:02.179Z,64.20
2017-08-08T05:03:07.946Z,64.20
2017-08-08T05:05:34.628Z,64.20
2017-08-08T05:08:01.294Z,64.20
2017-08-08T05:10:28.021Z,64.20
2017-08-08T05:12:54.694Z,64.20
2017-08-08T05:15:21.401Z,64.20
2017-08-08T05:17:48.089Z,64.10
2017-08-08T05:20:18.205Z,64.20
2017-08-08T05:22:44.877Z,64.20
2017-08-08T05:25:11.585Z,64.20
2017-08-08T05:27:38.257Z,64.20
2017-08-08T05:32:45.316Z,64.30
2017-08-08T05:35:11.988Z,64.30
2017-08-08T05:37:38.697Z,64.20
2017-08-08T05:40:05.609Z,64.10
2017-08-08T05:42:32.337Z,64.30
2017-08-08T05:45:00.329Z,64.20
2017-08-08T05:47:27.056Z,64.20
2017-08-08T05:49:53.726Z,64.20
2017-08-08T05:52:20.442Z,64.20
2017-08-08T05:54:47.112Z,64.10
2017-08-08T05:57:14.312Z,64.20
2017-08-08T05:59:41.002Z,64.20
2017-08-08T06:02:07.671Z,64.20
2017-08-08T06:04:39.989Z,64.20
2017-08-08T06:07:06.653Z,64.20
2017-08-08T06:09:34.026Z,64.20
2017-08-08T06:12:00.718Z,64.20
2017-08-08T06:14:27.809Z,64.20
2017-08-08T06:16:54.481Z,64.10
2017-08-08T06:19:21.185Z,64.20
2017-08-08T06:21:47.857Z,64.10
2017-08-08T06:24:14.589Z,64.20
2017-08-08T06:26:41.266Z,64.20
2017-08-08T06:29:08.328Z,64.20
2017-08-08T06:31:35.037Z,64.20
2017-08-08T06:34:01.714Z,64.20
2017-08-08T06:36:28.409Z,64.20
2017-08-08T06:38:55.090Z,64.30
2017-08-08T06:41:21.826Z,64.20
2017-08-08T06:43:48.505Z,64.30
2017-08-08T06:46:15.202Z,64.30
2017-08-08T06:48:41.877Z,64.30
2017-08-08T06:51:08.585Z,64.30
2017-08-08T06:53:35.257Z,64.30
2017-08-08T06:56:01.970Z,64.30
2017-08-08T06:58:28.641Z,64.30
2017-08-08T07:00:55.315Z,64.30
2017-08-08T07:03:22.021Z,64.30
2017-08-08T07:05:48.698Z,64.30
2017-08-08T07:08:15.414Z,64.20
2017-08-08T07:10:42.084Z,64.20
2017-08-08T07:13:08.786Z,64.20
2017-08-08T07:15:35.456Z,64.20
2017-08-08T07:18:02.165Z,64.30
2017-08-08T07:20:28.834Z,64.30
2017-08-08T07:22:55.581Z,64.20
2017-08-08T07:25:22.273Z,64.20
2017-08-08T07:27:48.945Z,64.30
2017-08-08T07:30:15.645Z,64.30
2017-08-08T07:32:42.325Z,64.30
2017-08-08T07:35:09.036Z,64.30
2017-08-08T07:37:35.709Z,64.30
2017-08-08T07:40:02.401Z,64.30
2017-08-08T07:42:29.472Z,64.40
2017-08-08T07:44:56.163Z,64.40
2017-08-08T07:47:22.844Z,64.40
2017-08-08T07:49:49.544Z,64.40
2017-08-08T07:52:16.221Z,64.40
2017-08-08T07:54:43.276Z,64.50
2017-08-08T07:57:10.368Z,64.50
2017-08-08T07:59:37.032Z,64.50
2017-08-08T08:02:03.731Z,64.50
2017-08-08T08:04:31.208Z,64.50
2017-08-08T08:06:57.908Z,64.60
2017-08-08T08:09:24.976Z,64.50
2017-08-08T08:11:51.661Z,64.60
2017-08-08T08:14:18.337Z,64.60
2017-08-08T08:16:45.450Z,64.60
2017-08-08T08:19:12.153Z,64.60
2017-08-08T08:21:38.829Z,64.50
2017-08-08T08:24:05.519Z,64.50
2017-08-08T08:26:32.329Z,64.50
2017-08-08T08:28:59.028Z,64.50
2017-08-08T08:31:25.705Z,64.60
2017-08-08T08:33:52.404Z,64.50
2017-08-08T08:36:19.069Z,64.50
2017-08-08T08:38:46.193Z,64.40
2017-08-08T08:41:12.853Z,64.50
2017-08-08T08:43:39.560Z,64.40
2017-08-08T08:46:06.232Z,64.40
2017-08-08T08:48:32.904Z,64.30
2017-08-08T08:50:59.602Z,64.40
2017-08-08T08:53:26.269Z,64.30
2017-08-08T08:55:53.642Z,64.30
2017-08-08T08:58:20.390Z,64.40
2017-08-08T09:00:47.101Z,64.30
2017-08-08T09:03:13.764Z,64.40
2017-08-08T09:05:40.464Z,64.40
2017-08-08T09:08:07.129Z,64.40
2017-08-08T09:10:34.300Z,64.40
2017-08-08T09:13:00.994Z,64.40
2017-08-08T09:15:27.689Z,64.40
2017-08-08T09:17:54.390Z,64.40
2017-08-08T09:20:21.053Z,64.40
2017-08-08T09:22:47.756Z,64.40
2017-08-08T09:25:14.425Z,64.40
2017-08-08T09:27:41.112Z,64.40
2017-08-08T09:30:07.781Z,64.50
2017-08-08T09:32:34.469Z,64.50
2017-08-08T09:35:01.166Z,64.50
2017-08-08T09:37:27.853Z,64.50
2017-08-08T09:39:54.568Z,64.50
2017-08-08T09:42:21.240Z,64.50
2017-08-08T09:44:47.941Z,64.50
2017-08-08T09:47:14.608Z,64.50
2017-08-08T09:49:41.321Z,64.50
2017-08-08T09:52:07.993Z,64.60
2017-08-08T09:54:34.690Z,64.60
2017-08-08T09:57:01.358Z,64.60
2017-08-08T09:59:28.091Z,64.60
2017-08-08T10:01:54.766Z,64.60
2017-08-08T10:04:21.442Z,64.60
2017-08-08T10:06:48.174Z,64.60
2017-08-08T10:09:14.854Z,64.60
2017-08-08T10:11:41.549Z,64.60
2017-08-08T10:14:08.616Z,64.70
2017-08-08T10:16:35.341Z,64.70
2017-08-08T10:19:02.419Z,64.70
2017-08-08T10:21:29.134Z,64.70
2017-08-08T10:23:55.814Z,64.70
2017-08-08T10:26:23.282Z,64.70
2017-08-08T10:28:49.958Z,64.70
2017-08-08T10:31:16.650Z,64.70
2017-08-08T10:33:43.361Z,64.70
2017-08-08T10:36:10.438Z,64.70
2017-08-08T10:38:37.177Z,64.70
2017-08-08T10:41:03.850Z,64.80
2017-08-08T10:43:30.579Z,64.80
2017-08-08T10:45:57.262Z,64.80
2017-08-08T10:48:24.378Z,64.80
2017-08-08T10:50:51.062Z,64.80
2017-08-08T10:53:17.769Z,64.80
2017-08-08T10:55:44.442Z,64.90
2017-08-08T10:58:11.542Z,64.80
2017-08-08T11:03:16.906Z,64.80
2017-08-08T11:05:43.611Z,64.80
2017-08-08T11:08:10.286Z,64.80
2017-08-08T11:10:37.001Z,64.90
2017-08-08T11:13:03.685Z,64.90
2017-08-08T11:15:30.399Z,64.90
2017-08-08T11:17:57.074Z,64.90
2017-08-08T11:20:23.782Z,64.90
2017-08-08T11:22:50.458Z,65.00
2017-08-08T11:25:17.164Z,65.00
2017-08-08T11:27:43.837Z,65.00
2017-08-08T11:32:49.090Z,65.10
2017-08-08T11:35:15.799Z,65.10
2017-08-08T11:37:43.081Z,65.20
2017-08-08T11:40:09.763Z,65.10
2017-08-08T11:42:36.983Z,65.20
2017-08-08T11:45:03.682Z,65.20
2017-08-08T11:47:30.406Z,65.20
2017-08-08T11:49:57.110Z,65.30
2017-08-08T11:52:23.798Z,65.30
2017-08-08T11:54:50.525Z,65.30
2017-08-08T11:57:17.601Z,65.50
2017-08-08T11:59:44.322Z,65.50
2017-08-08T12:02:11.007Z,65.60
2017-08-08T12:04:37.718Z,65.60
2017-08-08T12:07:04.393Z,65.50
2017-08-08T12:09:31.122Z,65.50
2017-08-08T12:11:57.799Z,65.70
2017-08-08T12:14:24.522Z,65.70
2017-08-08T12:16:51.186Z,65.70
2017-08-08T12:19:17.910Z,65.80
2017-08-08T12:21:45.058Z,65.80
2017-08-08T12:24:11.738Z,65.80
2017-08-08T12:26:38.442Z,65.80
2017-08-08T12:29:05.122Z,65.90
2017-08-08T12:31:32.045Z,65.80
2017-08-08T12:33:59.414Z,65.90
2017-08-08T12:36:26.130Z,66.00
2017-08-08T12:38:52.822Z,65.80
2017-08-08T12:41:20.226Z,66.00
2017-08-08T12:43:47.590Z,65.90
2017-08-08T12:46:14.647Z,65.80
2017-08-08T12:48:41.327Z,65.90
2017-08-08T12:51:07.998Z,65.70
2017-08-08T12:53:34.702Z,65.90
2017-08-08T12:56:01.373Z,65.90
2017-08-08T12:58:28.095Z,65.90
2017-08-08T13:03:33.834Z,65.90
2017-08-08T13:06:00.507Z,65.80
2017-08-08T13:08:27.214Z,66.00
2017-08-08T13:10:53.890Z,65.90
2017-08-08T13:13:20.598Z,66.00
2017-08-08T13:15:47.674Z,66.10
2017-08-08T13:18:14.354Z,66.10
2017-08-08T13:20:41.059Z,66.10
2017-08-08T13:23:07.756Z,66.10
2017-08-08T13:25:34.879Z,66.10
2017-08-08T13:28:01.614Z,66.20
2017-08-08T13:33:07.674Z,66.20
2017-08-08T13:35:34.385Z,66.20
2017-08-08T13:38:01.740Z,66.40
2017-08-08T13:40:28.446Z,66.40
2017-08-08T13:42:55.573Z,66.40
2017-08-08T13:45:22.254Z,66.50
2017-08-08T13:47:48.998Z,66.50
2017-08-08T13:50:15.674Z,66.60
2017-08-08T13:52:43.473Z,66.60
2017-08-08T13:55:10.146Z,66.60
2017-08-08T13:57:36.858Z,66.70
2017-08-08T14:00:03.526Z,66.70
2017-08-08T14:02:30.258Z,66.70
2017-08-08T14:04:56.954Z,66.70
2017-08-08T14:07:23.645Z,66.80
2017-08-08T14:09:50.358Z,66.90
2017-08-08T14:12:17.057Z,67.00
2017-08-08T14:14:43.762Z,67.00
2017-08-08T14:17:10.453Z,67.10
2017-08-08T14:19:37.158Z,67.10
2017-08-08T14:22:03.842Z,67.20
2017-08-08T14:24:31.930Z,67.30
2017-08-08T14:26:58.613Z,67.30
2017-08-08T14:29:25.337Z,67.30
2017-08-08T14:31:52.010Z,67.20
2017-08-08T14:34:18.685Z,67.00
2017-08-08T14:36:45.411Z,67.40
2017-08-08T14:39:12.081Z,67.50
2017-08-08T14:41:38.794Z,67.60
2017-08-08T14:44:05.486Z,67.70
2017-08-08T14:46:32.255Z,67.60
2017-08-08T14:48:58.930Z,67.70
2017-08-08T14:51:25.641Z,67.70
2017-08-08T14:53:52.314Z,67.50
2017-08-08T14:56:19.004Z,67.40
2017-08-08T14:58:45.728Z,67.60
2017-08-08T15:01:12.409Z,67.50
2017-08-08T15:03:39.119Z,67.50
2017-08-08T15:06:05.802Z,67.60
2017-08-08T15:08:32.518Z,67.20
2017-08-08T15:10:59.193Z,67.00
2017-08-08T15:13:25.898Z,67.50
2017-08-08T15:15:52.582Z,67.00
2017-08-08T15:18:20.065Z,67.00
2017-08-08T15:20:46.783Z,67.10
2017-08-08T15:23:13.518Z,66.70
2017-08-08T15:25:40.230Z,66.60
2017-08-08T15:28:06.916Z,66.90
2017-08-08T15:30:33.632Z,66.70
2017-08-08T15:33:00.335Z,66.60
2017-08-08T15:35:27.085Z,66.50
2017-08-08T15:37:53.829Z,66.40
2017-08-08T15:40:20.539Z,66.30
2017-08-08T15:42:47.254Z,66.40
2017-08-08T15:45:13.926Z,66.40
2017-08-08T15:47:40.634Z,66.40
2017-08-08T15:50:07.313Z,66.30
2017-08-08T15:52:34.031Z,66.20
2017-08-08T15:55:00.727Z,66.30
2017-08-08T15:57:27.527Z,66.20
2017-08-08T15:59:54.214Z,66.30
2017-08-08T16:02:20.948Z,66.20
2017-08-08T16:04:47.626Z,66.20
2017-08-08T16:07:14.298Z,66.20
2017-08-08T16:09:41.388Z,66.20
2017-08-08T16:12:08.294Z,66.20
2017-08-08T16:14:42.661Z,66.20
2017-08-08T16:17:09.358Z,66.30
2017-08-08T16:19:36.102Z,66.20
2017-08-08T16:22:02.786Z,66.30
2017-08-08T16:24:29.490Z,66.30
2017-08-08T16:26:56.169Z,66.20
2017-08-08T16:29:23.897Z,66.20
2017-08-08T16:31:50.602Z,66.20
2017-08-08T16:34:17.278Z,66.30
2017-08-08T16:36:43.998Z,66.30
2017-08-08T16:39:10.683Z,66.30
2017-08-08T16:41:37.393Z,66.40
2017-08-08T16:44:04.109Z,66.30
2017-08-08T16:46:30.806Z,66.30
2017-08-08T16:48:57.489Z,66.30
2017-08-08T16:51:24.194Z,66.30
2017-08-08T16:53:53.833Z,66.30
2017-08-08T16:56:20.586Z,66.30
2017-08-08T16:58:47.297Z,66.40
2017-08-08T17:01:17.079Z,66.60
2017-08-08T17:03:43.790Z,66.80
2017-08-08T17:06:11.667Z,66.80
2017-08-08T17:08:39.138Z,67.20
2017-08-08T17:11:05.850Z,67.20
2017-08-08T17:13:40.455Z,67.00
2017-08-08T17:16:10.090Z,66.90
2017-08-08T17:18:37.570Z,67.30
2017-08-08T17:21:04.245Z,67.20
2017-08-08T17:23:30.964Z,67.40
2017-08-08T17:25:57.637Z,67.40
2017-08-08T17:28:24.333Z,67.60
2017-08-08T17:30:51.037Z,67.60
2017-08-08T17:33:18.105Z,67.80
2017-08-08T17:35:44.814Z,67.90
2017-08-08T17:38:11.483Z,67.90
2017-08-08T17:40:38.230Z,68.10
2017-08-08T17:43:04.903Z,68.10
2017-08-08T17:45:32.834Z,68.20
2017-08-08T17:47:59.517Z,68.30
2017-08-08T17:50:26.310Z,68.40
2017-08-08T17:52:53.017Z,68.20
2017-08-08T17:55:19.719Z,68.40
2017-08-08T17:57:46.425Z,68.40
2017-08-08T18:02:47.942Z,68.30
2017-08-08T18:05:14.614Z,68.80
2017-08-08T18:07:41.319Z,68.70
2017-08-08T18:10:07.998Z,68.80
2017-08-08T18:12:34.706Z,68.90
2017-08-08T18:15:02.384Z,68.80
2017-08-08T18:17:29.096Z,68.80
2017-08-08T18:19:55.818Z,68.90
2017-08-08T18:22:22.561Z,68.80
2017-08-08T18:24:49.238Z,69.10
2017-08-08T18:27:16.346Z,69.10
2017-08-08T18:29:43.046Z,69.00
2017-08-08T18:32:09.738Z,68.90
2017-08-08T18:34:36.450Z,69.00
2017-08-08T18:37:03.714Z,69.00
2017-08-08T18:39:30.814Z,69.10
2017-08-08T18:42:00.289Z,69.10
2017-08-08T18:44:26.999Z,69.10
2017-08-08T18:46:53.682Z,69.30
2017-08-08T18:49:20.385Z,69.20
2017-08-08T18:51:48.056Z,69.30
2017-08-08T18:54:14.799Z,69.10
2017-08-08T18:56:41.480Z,69.30
2017-08-08T18:59:08.164Z,69.30
2017-08-08T19:01:34.882Z,69.30
2017-08-08T19:04:01.565Z,69.30
2017-08-08T19:06:28.277Z,69.30
2017-08-08T19:08:54.974Z,69.30
2017-08-08T19:11:27.307Z,69.40
2017-08-08T19:13:53.986Z,69.30
2017-08-08T19:16:20.699Z,69.40
2017-08-08T19:18:47.391Z,69.40
2017-08-08T19:21:14.070Z,69.40
2017-08-08T19:23:40.778Z,69.30
2017-08-08T19:26:07.462Z,69.40
2017-08-08T19:28:34.178Z,69.40
2017-08-08T19:33:40.090Z,69.60
2017-08-08T19:36:06.778Z,69.50
2017-08-08T19:38:34.310Z,69.60
2017-08-08T19:41:00.988Z,69.50
2017-08-08T19:43:31.029Z,69.60
2017-08-08T19:45:58.330Z,69.50
2017-08-08T19:48:25.638Z,69.50
2017-08-08T19:50:52.443Z,69.60
2017-08-08T19:55:51.484Z,69.60
2017-08-08T19:58:18.510Z,69.60
2017-08-08T20:03:24.642Z,69.60
2017-08-08T20:05:52.279Z,69.50
2017-08-08T20:08:18.954Z,69.50
2017-08-08T20:10:45.677Z,69.60
2017-08-08T20:13:12.442Z,69.60
2017-08-08T20:15:41.062Z,69.50
2017-08-08T20:18:09.260Z,69.50
2017-08-08T20:20:38.018Z,69.50
2017-08-08T20:23:04.893Z,69.50
2017-08-08T20:25:31.566Z,69.50
2017-08-08T20:27:59.011Z,69.50
2017-08-08T20:33:05.134Z,69.50
2017-08-08T20:35:32.938Z,69.50
2017-08-08T20:38:00.488Z,69.50
2017-08-08T20:40:27.210Z,69.50
2017-08-08T20:42:54.675Z,69.50
2017-08-08T20:45:21.356Z,69.50
2017-08-08T20:47:48.048Z,69.50
2017-08-08T20:50:15.066Z,69.60
2017-08-08T20:52:42.306Z,69.50
2017-08-08T20:55:09.637Z,69.60
2017-08-08T20:57:36.326Z,69.60
2017-08-08T21:00:03.590Z,69.50
2017-08-08T21:02:30.315Z,69.60
2017-08-08T21:04:57.550Z,69.50
2017-08-08T21:07:24.262Z,69.50
2017-08-08T21:09:51.022Z,69.50
2017-08-08T21:12:17.773Z,69.50
2017-08-08T21:14:44.455Z,69.40
2017-08-08T21:17:11.153Z,69.50
2017-08-08T21:19:37.853Z,69.50
2017-08-08T21:22:05.382Z,69.50
2017-08-08T21:24:32.282Z,69.50
2017-08-08T21:27:04.179Z,69.50
2017-08-08T21:29:30.882Z,69.50
2017-08-08T21:31:57.597Z,69.50
2017-08-08T21:34:24.321Z,69.50
2017-08-08T21:36:51.601Z,69.40
2017-08-08T21:39:18.817Z,69.50
2017-08-08T21:41:45.504Z,69.50
2017-08-08T21:44:12.306Z,69.50
2017-08-08T21:46:40.922Z,69.50
2017-08-08T21:49:07.683Z,69.40
2017-08-08T21:51:34.349Z,69.50
2017-08-08T21:54:02.221Z,69.50
2017-08-08T21:56:28.910Z,69.40
2017-08-08T21:58:55.610Z,69.40
2017-08-08T22:01:23.030Z,69.40
2017-08-08T22:08:55.840Z,69.50
2017-08-08T22:11:23.346Z,69.40
2017-08-08T22:13:51.126Z,69.40
2017-08-08T22:16:18.146Z,69.30
2017-08-08T22:18:44.822Z,69.40
2017-08-08T22:21:13.002Z,69.40
2017-08-08T22:23:40.634Z,69.30
2017-08-08T22:26:08.130Z,69.30
2017-08-08T22:28:36.173Z,69.30
2017-08-08T22:33:42.546Z,69.30
2017-08-08T22:36:09.926Z,69.30
2017-08-08T22:38:38.886Z,69.30
2017-08-08T22:41:05.830Z,69.20
2017-08-08T22:43:32.838Z,69.30
2017-08-08T22:46:06.386Z,69.30
2017-08-08T22:48:33.130Z,69.30
2017-08-08T22:51:00.379Z,69.30
2017-08-08T22:53:27.810Z,69.30
2017-08-08T22:55:55.733Z,69.30
2017-08-08T22:58:22.527Z,69.20
2017-08-08T23:00:49.766Z,69.20
2017-08-08T23:03:16.698Z,69.20
2017-08-08T23:05:44.175Z,69.20
2017-08-08T23:08:11.258Z,69.10
2017-08-08T23:10:38.943Z,69.20
2017-08-08T23:13:08.490Z,69.10
2017-08-08T23:15:35.190Z,69.10
2017-08-08T23:18:01.869Z,69.10
2017-08-08T23:20:29.801Z,69.10
2017-08-08T23:22:58.266Z,69.10
2017-08-08T23:25:25.691Z,69.00
2017-08-08T23:27:52.406Z,69.00
2017-08-08T23:30:19.738Z,69.10
2017-08-08T23:32:47.393Z,69.00
2017-08-08T23:35:14.098Z,69.00
2017-08-08T23:37:41.453Z,69.00
2017-08-08T23:40:09.781Z,69.00
2017-08-08T23:42:37.524Z,69.00
2017-08-08T23:45:04.206Z,69.00
2017-08-08T23:47:30.999Z,69.00
2017-08-08T23:49:58.952Z,69.00
2017-08-08T23:52:26.557Z,68.90
2017-08-08T23:54:53.914Z,68.90
2017-08-08T23:57:20.590Z,68.90
2017-08-08T23:59:47.735Z,68.90
